createdAt,value
2023-01-17T00:01:22.547Z,9.32
2023-01-17T00:03:49.215Z,7.40
2023-01-17T00:06:15.891Z,7.68
2023-01-17T00:08:42.558Z,9.20
2023-01-17T00:11:09.223Z,7.38
2023-01-17T00:13:35.824Z,8.57
2023-01-17T00:16:02.645Z,8.40
2023-01-17T00:18:30.716Z,7.47
2023-01-17T00:20:57.367Z,7.47
2023-01-17T00:23:25.696Z,7.00
2023-01-17T00:25:52.996Z,7.32
2023-01-17T00:28:20.008Z,7.15
2023-01-17T00:30:47.022Z,9.55
2023-01-17T00:33:13.929Z,7.90
2023-01-17T00:35:48.157Z,7.93
2023-01-17T00:38:16.367Z,7.03
2023-01-17T00:40:44.946Z,7.80
2023-01-17T00:43:12.957Z,7.95
2023-01-17T00:45:39.603Z,7.45
2023-01-17T00:48:06.454Z,7.60
2023-01-17T00:50:33.335Z,7.85
2023-01-17T00:53:05.048Z,6.15
2023-01-17T00:55:36.381Z,7.07
2023-01-17T00:58:12.572Z,7.47
2023-01-17T01:00:39.298Z,6.35
2023-01-17T01:03:09.021Z,6.88
2023-01-17T01:08:16.119Z,6.00
2023-01-17T01:10:42.801Z,6.32
2023-01-17T01:13:09.499Z,5.85
2023-01-17T01:15:36.142Z,6.10
2023-01-17T01:18:05.867Z,6.35
2023-01-17T01:23:15.250Z,6.93
2023-01-17T01:25:41.899Z,6.00
2023-01-17T01:28:19.593Z,5.65
2023-01-17T01:30:49.150Z,5.78
2023-01-17T01:33:16.272Z,5.05
2023-01-17T01:35:45.344Z,6.53
2023-01-17T01:38:11.977Z,5.53
2023-01-17T01:40:48.454Z,5.18
2023-01-17T01:43:41.501Z,5.60
2023-01-17T01:46:11.406Z,5.63
2023-01-17T01:48:42.397Z,4.85
2023-01-17T01:51:15.093Z,5.05
2023-01-17T01:53:45.446Z,5.35
2023-01-17T01:56:15.203Z,4.80
2023-01-17T01:58:53.576Z,4.82
2023-01-17T02:01:20.548Z,5.55
2023-01-17T02:03:48.332Z,4.63
2023-01-17T02:06:28.454Z,5.10
2023-01-17T02:08:57.310Z,5.20
2023-01-17T02:11:26.328Z,5.00
2023-01-17T02:13:53.018Z,5.47
2023-01-17T02:16:36.883Z,5.57
2023-01-17T02:19:30.095Z,4.85
2023-01-17T02:22:05.258Z,4.95
2023-01-17T02:24:54.734Z,5.90
2023-01-17T02:27:27.114Z,7.25
2023-01-17T02:30:27.565Z,5.53
2023-01-17T02:33:03.453Z,7.53
2023-01-17T02:35:36.249Z,5.47
2023-01-17T02:38:19.574Z,6.28
2023-01-17T02:40:52.610Z,5.05
2023-01-17T02:43:22.480Z,5.10
2023-01-17T02:45:50.847Z,4.70
2023-01-17T02:48:22.589Z,4.97
2023-01-17T02:51:11.712Z,4.45
2023-01-17T02:53:54.127Z,4.68
2023-01-17T02:56:34.363Z,4.30
2023-01-17T02:59:14.578Z,4.13
2023-01-17T03:01:57.742Z,3.88
2023-01-17T03:04:30.132Z,3.95
2023-01-17T03:06:59.134Z,4.05
2023-01-17T03:09:26.384Z,4.10
2023-01-17T03:11:53.652Z,4.18
2023-01-17T03:14:20.288Z,3.80
2023-01-17T03:16:48.398Z,4.05
2023-01-17T03:19:15.182Z,3.85
2023-01-17T03:21:41.799Z,3.40
2023-01-17T03:24:08.736Z,3.80
2023-01-17T03:26:35.386Z,3.88
2023-01-17T03:29:02.339Z,3.47
2023-01-17T03:31:29.004Z,3.75
2023-01-17T03:33:59.283Z,3.60
2023-01-17T03:36:25.876Z,3.60
2023-01-17T03:38:54.890Z,5.22
2023-01-17T03:41:21.540Z,4.95
2023-01-17T03:43:48.206Z,4.63
2023-01-17T03:46:20.412Z,5.18
2023-01-17T03:48:47.092Z,4.40
2023-01-17T03:51:15.187Z,4.28
2023-01-17T03:53:41.956Z,4.25
2023-01-17T03:56:09.292Z,5.50
2023-01-17T03:58:36.025Z,4.32
2023-01-17T04:01:02.761Z,4.20
2023-01-17T04:03:29.547Z,4.93
2023-01-17T04:05:56.321Z,4.10
2023-01-17T04:08:24.604Z,4.40
2023-01-17T04:10:51.248Z,4.45
2023-01-17T04:13:18.004Z,4.22
2023-01-17T04:15:45.770Z,5.00
2023-01-17T04:18:13.229Z,4.68
2023-01-17T04:20:40.790Z,5.10
2023-01-17T04:23:07.855Z,4.82
2023-01-17T04:25:36.156Z,8.18
2023-01-17T04:28:03.326Z,5.53
2023-01-17T04:30:31.302Z,5.82
2023-01-17T04:33:00.582Z,6.97
2023-01-17T04:35:29.362Z,5.13
2023-01-17T04:37:58.190Z,6.37
2023-01-17T04:40:25.023Z,5.17
2023-01-17T04:42:53.047Z,4.68
2023-01-17T04:45:19.917Z,4.68
2023-01-17T04:47:46.542Z,4.95
2023-01-17T04:50:13.193Z,5.07
2023-01-17T04:52:39.875Z,5.68
2023-01-17T04:55:07.484Z,4.55
2023-01-17T04:57:34.337Z,4.75
2023-01-17T05:00:02.604Z,6.07
2023-01-17T05:02:29.298Z,5.28
2023-01-17T05:04:56.058Z,8.43
2023-01-17T05:07:24.133Z,5.85
2023-01-17T05:09:50.810Z,5.85
2023-01-17T05:12:17.480Z,6.10
2023-01-17T05:14:44.111Z,5.75
2023-01-17T05:17:12.098Z,6.57
2023-01-17T05:19:38.705Z,5.25
2023-01-17T05:22:05.463Z,7.78
2023-01-17T05:24:32.109Z,6.68
2023-01-17T05:26:58.785Z,8.32
2023-01-17T05:29:25.479Z,8.68
2023-01-17T05:31:52.118Z,7.80
2023-01-17T05:34:20.206Z,7.47
2023-01-17T05:36:46.854Z,6.90
2023-01-17T05:39:13.498Z,6.50
2023-01-17T05:41:40.207Z,6.93
2023-01-17T05:44:06.956Z,8.05
2023-01-17T05:46:33.704Z,6.97
2023-01-17T05:49:00.418Z,6.75
2023-01-17T05:51:28.532Z,6.95
2023-01-17T05:53:55.462Z,7.13
2023-01-17T05:56:22.136Z,6.75
2023-01-17T05:58:48.819Z,6.80
2023-01-17T06:01:15.511Z,7.03
2023-01-17T06:03:42.177Z,7.43
2023-01-17T06:06:08.803Z,9.45
2023-01-17T06:08:36.775Z,6.97
2023-01-17T06:11:03.609Z,8.30
2023-01-17T06:13:30.178Z,6.90
2023-01-17T06:15:56.911Z,10.63
2023-01-17T06:18:23.611Z,6.75
2023-01-17T06:20:52.631Z,7.43
2023-01-17T06:23:19.388Z,7.18
2023-01-17T06:25:47.994Z,7.75
2023-01-17T06:28:17.744Z,12.48
2023-01-17T06:30:45.064Z,24.65
2023-01-17T06:33:12.203Z,75.32
2023-01-17T06:35:38.933Z,165.80
2023-01-17T06:38:05.708Z,81.68
2023-01-17T06:40:32.725Z,69.70
2023-01-17T06:43:01.621Z,100.78
2023-01-17T06:45:28.835Z,74.05
2023-01-17T06:47:55.503Z,51.13
2023-01-17T06:50:22.186Z,89.72
2023-01-17T06:52:54.864Z,24.30
2023-01-17T06:55:21.647Z,38.25
2023-01-17T06:57:48.328Z,31.20
2023-01-17T07:00:17.301Z,55.63
2023-01-17T07:02:43.973Z,47.08
2023-01-17T07:05:10.628Z,114.10
2023-01-17T07:07:37.273Z,61.58
2023-01-17T07:10:04.705Z,122.43
2023-01-17T07:12:31.372Z,125.07
2023-01-17T07:14:58.009Z,143.02
2023-01-17T07:17:26.073Z,201.95
2023-01-17T07:19:52.765Z,262.98
2023-01-17T07:22:19.423Z,233.10
2023-01-17T07:24:51.215Z,224.82
2023-01-17T07:27:17.955Z,162.15
2023-01-17T07:29:45.674Z,204.45
2023-01-17T07:32:12.321Z,124.53
2023-01-17T07:34:41.448Z,159.50
2023-01-17T07:37:08.116Z,237.18
2023-01-17T07:39:34.777Z,177.45
2023-01-17T07:42:01.543Z,213.93
2023-01-17T07:44:31.108Z,85.13
2023-01-17T07:49:24.382Z,108.22
2023-01-17T07:51:52.484Z,42.90
2023-01-17T07:54:19.163Z,47.47
2023-01-17T07:56:45.791Z,69.30
2023-01-17T07:59:12.770Z,106.38
2023-01-17T08:01:39.384Z,114.32
2023-01-17T08:04:06.135Z,88.47
2023-01-17T08:06:32.964Z,172.50
2023-01-17T08:09:01.001Z,108.88
2023-01-17T08:11:27.637Z,218.93
2023-01-17T08:13:54.315Z,162.05
2023-01-17T08:16:21.018Z,231.93
2023-01-17T08:18:47.665Z,129.63
2023-01-17T08:21:15.632Z,155.65
2023-01-17T08:40:57.145Z,152.40
2023-01-17T08:44:09.206Z,79.82
2023-01-17T08:46:40.221Z,53.38
2023-01-17T08:52:37.993Z,43.22
2023-01-17T08:55:22.657Z,35.40
2023-01-17T08:58:42.837Z,35.83
2023-01-17T09:01:29.217Z,33.83
2023-01-17T09:03:57.108Z,79.10
2023-01-17T09:13:25.448Z,50.45
2023-01-17T09:16:28.606Z,53.13
2023-01-17T11:18:45.514Z,25.95
2023-01-17T11:41:08.701Z,22.10
2023-01-17T11:50:39.075Z,26.88
2023-01-17T11:59:36.898Z,20.73
2023-01-17T12:15:13.383Z,22.17
2023-01-17T13:07:48.056Z,14.98
2023-01-17T15:59:52.175Z,2.28
2023-01-17T16:11:50.839Z,2.28
